Главная страница
METAR-TAF:

METAR-TAF

Аэропорты :

Яссы, Румыния

широта: 47-10N, долгота: 027-38E, высота над уровнем моря: 102 м

Текущие метеонаблюдения

Эта сводка был подготовлена 34 минут назад, в 22:00 UTC
Ветер 3 Узел от западно-северо-западный
Температура 20°C
Влажность 83%
Давление 1016 hPa
Видимость 10 км и более

METAR: LRIA 172200Z AUTO 29003KT 9999 NCD 20/17 Q1016

Время: 01:34 (22:34 UTC)

Прогноз

Эта сводка был подготовлена 2 часа и 34 минут назад, в 20:00 UTC
Прогноз действительный с 17-го 21 UTC до 18-го 06 UTC
Ветер 4 Узел переменных направлений
Видимость 10 км и более
Нет облачности ниже 1500 м, и нет кучево-дождевой облачности

TAF: LRIA 172000Z 1721/1806 VRB04KT CAVOK

Метеонаблюдения и прогнозы для более 4000 аэропортов (сводки METAR и TAF).

Имеющиеся станции представлены на карте желтыми и красными точками.

Чтобы увидеть название станции, наведите на нее мышь.

Затем щелкните, чтобы увидеть метеонаблюдения и метеопрогнозы.

Управление картой: чтобы увеличить масштаб, щелкните зеленые кнопки с черным крестиком; чтобы уменьшить масштаб, щелкните зеленую кнопку с тире; для просмотра соседних карт щелкайте зеленые стрелки.


METAR-TAF: